createdAt,value
2022-08-19T00:00:38.544Z,4.30
2022-08-19T00:03:07.997Z,4.80
2022-08-19T00:08:01.884Z,4.00
2022-08-19T00:10:28.824Z,3.53
2022-08-19T00:12:55.563Z,4.62
2022-08-19T00:15:23.611Z,3.70
2022-08-19T00:17:50.395Z,3.87
2022-08-19T00:20:20.896Z,5.55
2022-08-19T00:22:48.951Z,3.97
2022-08-19T00:25:16.758Z,3.60
2022-08-19T00:27:44.477Z,4.63
2022-08-19T00:30:12.123Z,4.15
2022-08-19T00:32:39.883Z,5.12
2022-08-19T00:35:07.637Z,3.62
2022-08-19T00:37:36.139Z,4.15
2022-08-19T00:40:06.808Z,4.35
2022-08-19T00:42:33.874Z,4.37
2022-08-19T00:45:01.064Z,4.90
2022-08-19T00:47:28.088Z,4.87
2022-08-19T00:49:58.306Z,4.28
2022-08-19T00:52:32.281Z,4.43
2022-08-19T00:55:00.338Z,4.20
2022-08-19T00:57:43.113Z,4.28
2022-08-19T01:00:14.885Z,4.15
2022-08-19T01:02:42.787Z,4.57
2022-08-19T01:05:14.472Z,4.40
2022-08-19T01:07:42.488Z,4.32
2022-08-19T01:10:15.527Z,4.82
2022-08-19T01:12:42.745Z,5.15
2022-08-19T01:15:12.565Z,4.72
2022-08-19T01:17:40.930Z,5.25
2022-08-19T01:20:11.757Z,5.03
2022-08-19T01:22:47.228Z,4.25
2022-08-19T01:25:19.621Z,4.53
2022-08-19T01:27:49.424Z,4.50
2022-08-19T01:30:25.730Z,4.95
2022-08-19T01:32:53.964Z,3.92
2022-08-19T01:35:24.486Z,4.62
2022-08-19T01:37:55.935Z,4.80
2022-08-19T01:40:27.191Z,5.18
2022-08-19T01:42:54.795Z,3.75
2022-08-19T01:45:25.203Z,4.72
2022-08-19T01:48:01.438Z,4.80
2022-08-19T01:50:30.981Z,4.37
2022-08-19T01:53:05.965Z,4.50
2022-08-19T01:55:40.559Z,3.72
2022-08-19T01:58:12.512Z,3.92
2022-08-19T02:00:39.502Z,4.37
2022-08-19T02:03:07.621Z,4.07
2022-08-19T02:05:34.439Z,3.92
2022-08-19T02:08:01.160Z,4.22
2022-08-19T02:10:27.989Z,4.18
2022-08-19T02:12:54.866Z,3.72
2022-08-19T02:15:22.967Z,4.62
2022-08-19T02:17:50.056Z,3.28
2022-08-19T02:20:17.402Z,3.50
2022-08-19T02:22:44.446Z,3.70
2022-08-19T02:25:13.853Z,4.30
2022-08-19T02:27:42.792Z,4.20
2022-08-19T02:30:14.498Z,3.20
2022-08-19T02:32:44.508Z,4.90
2022-08-19T02:35:12.994Z,3.92
2022-08-19T02:37:58.909Z,3.72
2022-08-19T02:40:25.654Z,3.90
2022-08-19T02:42:52.794Z,5.68
2022-08-19T02:45:19.999Z,3.78
2022-08-19T02:47:46.740Z,4.40
2022-08-19T02:50:14.049Z,3.83
2022-08-19T02:52:40.752Z,3.75
2022-08-19T02:55:08.400Z,4.40
2022-08-19T02:57:35.434Z,3.87
2022-08-19T03:00:02.881Z,3.85
2022-08-19T03:02:29.641Z,3.33
2022-08-19T03:04:56.469Z,3.12
2022-08-19T03:07:23.248Z,4.40
2022-08-19T03:09:49.970Z,4.18
2022-08-19T03:12:16.818Z,3.97
2022-08-19T03:14:43.508Z,3.87
2022-08-19T03:17:10.558Z,4.35
2022-08-19T03:19:37.264Z,4.68
2022-08-19T03:22:05.283Z,5.22
2022-08-19T03:24:33.243Z,4.45
2022-08-19T03:27:00.023Z,4.00
2022-08-19T03:29:30.723Z,4.37
2022-08-19T03:32:04.872Z,4.30
2022-08-19T03:34:33.746Z,4.00
2022-08-19T03:37:06.407Z,3.50
2022-08-19T03:39:33.159Z,4.00
2022-08-19T03:42:30.127Z,4.25
2022-08-19T03:44:50.151Z,4.45
2022-08-19T03:47:18.085Z,4.45
2022-08-19T03:49:45.832Z,3.50
2022-08-19T03:52:12.770Z,4.85
2022-08-19T03:54:40.628Z,4.07
2022-08-19T03:57:07.880Z,4.32
2022-08-19T03:59:37.644Z,5.40
2022-08-19T04:02:11.586Z,4.43
2022-08-19T04:04:41.566Z,4.65
2022-08-19T04:07:10.510Z,4.20
2022-08-19T04:09:38.073Z,4.00
2022-08-19T04:12:06.650Z,4.40
2022-08-19T04:14:34.892Z,6.03
2022-08-19T04:17:04.393Z,4.12
2022-08-19T04:19:31.941Z,4.85
2022-08-19T04:21:59.421Z,5.97
2022-08-19T04:24:26.426Z,5.40
2022-08-19T04:26:53.927Z,5.37
2022-08-19T04:29:25.771Z,3.90
2022-08-19T04:31:54.717Z,5.12
2022-08-19T04:34:23.641Z,4.03
2022-08-19T04:36:55.092Z,5.45
2022-08-19T04:39:47.697Z,4.12
2022-08-19T04:42:33.851Z,7.45
2022-08-19T04:45:00.732Z,8.68
2022-08-19T04:47:48.038Z,7.60
2022-08-19T04:50:15.789Z,7.15
2022-08-19T04:52:44.052Z,6.82
2022-08-19T04:55:12.370Z,7.75
2022-08-19T04:57:41.301Z,5.68
2022-08-19T05:00:10.668Z,6.70
2022-08-19T05:02:38.374Z,6.68
2022-08-19T05:05:07.748Z,8.65
2022-08-19T05:07:35.263Z,8.27
2022-08-19T05:10:02.308Z,9.55
2022-08-19T05:12:30.054Z,8.60
2022-08-19T05:14:59.174Z,8.50
2022-08-19T05:17:31.016Z,9.85
2022-08-19T05:20:18.989Z,9.43
2022-08-19T05:22:48.384Z,9.65
2022-08-19T05:25:20.253Z,7.10
2022-08-19T05:27:47.568Z,7.55
2022-08-19T05:30:14.626Z,9.15
2022-08-19T05:32:41.981Z,8.55
2022-08-19T05:35:09.334Z,6.95
2022-08-19T05:37:36.089Z,6.97
2022-08-19T05:40:04.138Z,6.03
2022-08-19T05:42:31.695Z,5.75
2022-08-19T05:44:58.995Z,5.22
2022-08-19T05:47:25.803Z,6.03
2022-08-19T05:49:52.529Z,6.15
2022-08-19T05:52:25.705Z,6.32
2022-08-19T05:54:56.363Z,6.45
2022-08-19T05:57:24.696Z,6.53
2022-08-19T05:59:58.304Z,5.53
2022-08-19T06:02:29.721Z,5.90
2022-08-19T06:04:56.744Z,5.97
2022-08-19T06:07:23.919Z,5.28
2022-08-19T06:09:59.626Z,6.65
2022-08-19T06:12:36.108Z,6.97
2022-08-19T06:15:14.638Z,6.40
2022-08-19T06:17:42.873Z,6.90
2022-08-19T06:20:14.582Z,5.75
2022-08-19T06:22:45.090Z,6.65
2022-08-19T06:25:13.484Z,6.53
2022-08-19T06:27:58.685Z,6.13
2022-08-19T06:30:28.109Z,7.05
2022-08-19T06:32:55.050Z,5.68
2022-08-19T06:35:21.838Z,6.75
2022-08-19T06:37:48.771Z,5.85
2022-08-19T06:40:16.066Z,5.20
2022-08-19T06:42:54.366Z,5.93
2022-08-19T06:45:24.854Z,7.03
2022-08-19T06:47:55.286Z,6.18
2022-08-19T06:50:23.113Z,7.37
2022-08-19T06:52:51.996Z,6.25
2022-08-19T06:55:20.254Z,6.60
2022-08-19T06:57:47.601Z,7.47
2022-08-19T07:00:15.130Z,6.30
2022-08-19T07:02:48.160Z,6.32
2022-08-19T07:05:23.036Z,5.95
2022-08-19T07:07:49.857Z,6.65
2022-08-19T07:10:18.336Z,6.10
2022-08-19T07:12:45.558Z,7.05
2022-08-19T07:15:14.000Z,5.85
2022-08-19T07:17:41.781Z,5.72
2022-08-19T07:20:10.132Z,5.70
2022-08-19T07:22:40.903Z,7.18
2022-08-19T07:25:10.017Z,6.65
2022-08-19T07:27:39.541Z,6.32
2022-08-19T07:30:07.944Z,6.37
2022-08-19T07:32:38.640Z,6.05
2022-08-19T07:35:07.279Z,6.57
2022-08-19T07:37:36.586Z,6.03
2022-08-19T07:40:05.560Z,5.40
2022-08-19T07:42:32.384Z,6.60
2022-08-19T07:45:00.116Z,5.40
2022-08-19T07:47:48.841Z,6.00
2022-08-19T07:52:45.385Z,5.15
2022-08-19T07:55:41.708Z,6.35
2022-08-19T07:58:06.246Z,5.82
2022-08-19T08:00:33.854Z,7.30
2022-08-19T08:03:00.733Z,6.25
2022-08-19T08:05:46.177Z,6.78
2022-08-19T08:08:32.269Z,6.22
2022-08-19T08:11:00.282Z,6.12
2022-08-19T08:13:28.198Z,5.72
2022-08-19T08:15:56.890Z,5.75
2022-08-19T08:18:27.653Z,5.47
2022-08-19T08:20:55.967Z,5.22
2022-08-19T08:23:26.990Z,5.07
2022-08-19T08:25:57.713Z,6.47
2022-08-19T08:28:26.247Z,5.82
2022-08-19T08:30:58.249Z,5.53
2022-08-19T08:33:33.991Z,5.90
2022-08-19T08:36:09.217Z,6.55
2022-08-19T08:38:39.728Z,6.28
2022-08-19T08:41:38.280Z,6.43
2022-08-19T08:44:05.988Z,5.22
2022-08-19T08:46:35.752Z,5.53
2022-08-19T08:49:37.438Z,6.60
2022-08-19T08:52:11.022Z,6.55
2022-08-19T08:54:49.106Z,6.28
2022-08-19T08:57:40.837Z,5.72
2022-08-19T09:00:16.321Z,5.60
2022-08-19T09:02:44.499Z,5.82
2022-08-19T09:05:25.942Z,6.25
2022-08-19T09:08:09.907Z,6.72
2022-08-19T09:10:55.317Z,6.65
2022-08-19T09:13:37.937Z,6.20
2022-08-19T09:16:10.768Z,7.00
2022-08-19T09:18:45.743Z,6.00
2022-08-19T09:21:12.975Z,6.78
2022-08-19T09:23:39.854Z,8.50
2022-08-19T09:26:16.506Z,7.25
2022-08-19T09:28:48.282Z,7.35
2022-08-19T09:31:19.568Z,6.50
2022-08-19T09:33:47.378Z,6.28
2022-08-19T09:36:29.556Z,6.12
2022-08-19T09:39:01.878Z,6.82
2022-08-19T09:41:29.791Z,7.68
2022-08-19T09:43:59.441Z,7.05
2022-08-19T09:46:29.409Z,6.60
2022-08-19T09:49:03.054Z,6.47
2022-08-19T09:51:35.079Z,6.90
2022-08-19T09:56:34.059Z,6.72
2022-08-19T09:59:02.662Z,7.03
2022-08-19T10:01:32.434Z,7.07
2022-08-19T10:04:06.384Z,6.37
2022-08-19T10:06:46.349Z,6.37
2022-08-19T10:09:15.368Z,6.67
2022-08-19T10:11:52.543Z,7.43
2022-08-19T10:14:24.816Z,7.15
2022-08-19T10:16:52.985Z,6.43
2022-08-19T10:19:25.571Z,7.18
2022-08-19T10:21:54.127Z,6.55
2022-08-19T10:24:21.749Z,7.35
2022-08-19T10:26:57.373Z,6.70
2022-08-19T10:29:31.907Z,7.68
2022-08-19T10:32:03.310Z,6.72
2022-08-19T10:34:31.681Z,6.28
2022-08-19T10:37:00.886Z,6.70
2022-08-19T10:39:32.825Z,5.97
2022-08-19T10:42:08.471Z,4.90
2022-08-19T10:44:36.659Z,4.82
2022-08-19T10:47:05.068Z,5.70
2022-08-19T10:50:11.683Z,4.80
2022-08-19T10:52:39.861Z,4.47
2022-08-19T10:55:38.244Z,5.22
2022-08-19T10:58:05.181Z,3.95
2022-08-19T11:00:32.692Z,4.85
2022-08-19T11:02:59.717Z,3.78
2022-08-19T11:05:26.628Z,4.28
2022-08-19T11:07:53.893Z,4.15
2022-08-19T11:10:22.108Z,4.15
2022-08-19T11:12:49.487Z,3.95
2022-08-19T11:15:17.065Z,3.85
2022-08-19T11:17:44.893Z,3.60
2022-08-19T11:20:15.982Z,5.07
2022-08-19T11:22:43.353Z,4.10
2022-08-19T11:25:12.170Z,4.55
2022-08-19T11:27:43.357Z,5.22
2022-08-19T11:30:12.878Z,3.90
2022-08-19T11:32:43.589Z,5.45
2022-08-19T11:35:14.775Z,4.72
2022-08-19T11:37:41.832Z,4.50
2022-08-19T11:40:09.451Z,4.57
2022-08-19T11:42:54.922Z,15.05
2022-08-19T11:45:21.768Z,6.20
2022-08-19T11:47:48.947Z,4.70
2022-08-19T11:50:18.904Z,4.15
2022-08-19T11:52:46.855Z,3.62
2022-08-19T11:55:15.241Z,3.42
2022-08-19T11:57:44.854Z,3.05
2022-08-19T12:00:13.966Z,4.00
2022-08-19T12:05:12.294Z,3.58
2022-08-19T12:07:40.827Z,3.40
2022-08-19T12:10:08.362Z,3.30
2022-08-19T12:12:35.897Z,2.92
2022-08-19T12:15:03.516Z,3.65
2022-08-19T12:17:31.990Z,3.33
2022-08-19T12:19:58.735Z,3.70
2022-08-19T12:22:25.732Z,4.47
2022-08-19T12:24:54.409Z,5.43
2022-08-19T12:27:31.971Z,3.55
2022-08-19T12:30:09.024Z,4.78
2022-08-19T12:32:36.642Z,4.28
2022-08-19T12:35:04.042Z,3.53
2022-08-19T12:37:31.142Z,4.90
2022-08-19T12:39:57.945Z,3.60
2022-08-19T12:42:25.396Z,3.85
2022-08-19T12:44:52.928Z,3.25
2022-08-19T12:47:20.461Z,6.75
2022-08-19T12:49:55.118Z,5.28
2022-08-19T12:52:26.904Z,4.57
2022-08-19T12:54:55.870Z,4.70
2022-08-19T12:57:32.179Z,4.25
2022-08-19T13:00:14.800Z,5.35
2022-08-19T13:02:47.746Z,3.87
2022-08-19T13:05:17.238Z,3.30
2022-08-19T13:07:46.977Z,3.62
2022-08-19T13:10:16.939Z,3.08
2022-08-19T13:12:45.035Z,3.28
2022-08-19T13:15:12.936Z,3.50
2022-08-19T13:17:42.525Z,3.90
2022-08-19T13:20:11.523Z,2.80
2022-08-19T13:22:39.083Z,4.07
2022-08-19T13:25:07.554Z,3.30
2022-08-19T13:27:34.823Z,3.80
2022-08-19T13:30:20.739Z,4.62
2022-08-19T13:33:06.501Z,3.67
2022-08-19T13:35:33.661Z,4.07
2022-08-19T13:38:01.926Z,3.35
2022-08-19T13:40:30.216Z,3.92
2022-08-19T13:42:57.099Z,4.25
2022-08-19T13:45:25.986Z,4.43
2022-08-19T13:47:59.099Z,3.78
2022-08-19T13:50:30.020Z,3.20
2022-08-19T13:52:57.504Z,3.47
2022-08-19T13:55:25.425Z,5.95
2022-08-19T13:57:58.618Z,4.43
2022-08-19T14:00:27.667Z,3.35
2022-08-19T14:02:56.970Z,3.70
2022-08-19T14:07:51.672Z,4.28
2022-08-19T14:10:19.960Z,5.25
2022-08-19T14:12:47.527Z,3.80
2022-08-19T14:15:15.821Z,3.62
2022-08-19T14:17:47.968Z,3.78
2022-08-19T14:20:18.581Z,3.65
2022-08-19T14:22:47.299Z,4.05
2022-08-19T14:25:19.571Z,3.80
2022-08-19T14:27:46.603Z,3.95
2022-08-19T14:30:16.944Z,4.22
2022-08-19T14:32:46.939Z,3.75
2022-08-19T14:35:15.974Z,4.07
2022-08-19T14:37:45.722Z,4.62
2022-08-19T14:40:15.958Z,4.80
2022-08-19T14:42:44.048Z,3.67
2022-08-19T14:45:12.936Z,4.28
2022-08-19T14:47:40.799Z,3.90
2022-08-19T14:50:10.621Z,3.90
2022-08-19T14:52:49.259Z,4.40
2022-08-19T14:55:19.711Z,4.20
2022-08-19T14:57:46.805Z,3.80
2022-08-19T15:00:14.566Z,3.90
2022-08-19T15:02:42.828Z,4.10
2022-08-19T15:05:10.151Z,3.55
2022-08-19T15:07:38.442Z,4.32
2022-08-19T15:10:08.020Z,5.85
2022-08-19T15:12:41.286Z,4.37
2022-08-19T15:15:10.066Z,4.00
2022-08-19T15:17:46.197Z,3.67
2022-08-19T15:20:17.915Z,4.68
2022-08-19T15:22:45.203Z,3.80
2022-08-19T15:25:14.543Z,4.32
2022-08-19T15:27:41.931Z,4.55
2022-08-19T15:30:10.814Z,4.50
2022-08-19T15:32:38.907Z,3.20
2022-08-19T15:35:07.299Z,4.20
2022-08-19T15:37:37.107Z,4.03
2022-08-19T15:40:06.215Z,4.62
2022-08-19T15:42:33.454Z,5.50
2022-08-19T15:45:00.588Z,4.72
2022-08-19T15:47:34.715Z,3.58
2022-08-19T15:50:10.658Z,3.50
2022-08-19T15:52:49.332Z,4.12
2022-08-19T15:55:32.541Z,4.12
2022-08-19T15:58:28.620Z,3.25
2022-08-19T16:01:20.590Z,3.70
2022-08-19T16:04:11.071Z,4.53
2022-08-19T16:06:44.639Z,4.10
2022-08-19T16:09:11.648Z,3.30
2022-08-19T16:11:39.699Z,4.70
2022-08-19T16:14:09.744Z,3.92
2022-08-19T16:16:38.566Z,4.82
2022-08-19T16:19:10.631Z,3.37
2022-08-19T16:21:41.740Z,3.78
2022-08-19T16:24:13.076Z,3.30
2022-08-19T16:26:41.379Z,4.30
2022-08-19T16:29:12.034Z,3.15
2022-08-19T16:31:42.194Z,3.37
2022-08-19T16:36:36.585Z,4.05
2022-08-19T16:39:03.947Z,3.92
2022-08-19T16:41:30.708Z,3.80
2022-08-19T16:43:57.536Z,3.60
2022-08-19T16:46:27.030Z,4.40
2022-08-19T16:48:54.551Z,3.67
2022-08-19T16:51:23.016Z,3.53
2022-08-19T16:53:53.069Z,3.23
2022-08-19T16:56:21.387Z,4.03
2022-08-19T16:58:50.374Z,3.83
2022-08-19T17:01:18.696Z,3.60
2022-08-19T17:03:46.918Z,4.18
2022-08-19T17:06:20.167Z,3.65
2022-08-19T17:08:50.208Z,3.83
2022-08-19T17:11:19.491Z,5.32
2022-08-19T17:16:16.304Z,4.87
2022-08-19T17:18:43.399Z,4.40
2022-08-19T17:21:10.207Z,4.82
2022-08-19T17:23:42.999Z,3.35
2022-08-19T17:26:15.906Z,3.15
2022-08-19T17:28:49.905Z,4.25
2022-08-19T17:31:18.793Z,4.05
2022-08-19T17:33:48.225Z,3.80
2022-08-19T17:36:21.914Z,4.60
2022-08-19T17:38:49.300Z,4.12
2022-08-19T17:41:16.768Z,3.80
2022-08-19T17:43:44.264Z,4.10
2022-08-19T17:46:18.290Z,4.45
2022-08-19T17:48:55.389Z,4.20
2022-08-19T17:51:40.407Z,4.87
2022-08-19T17:54:12.482Z,6.15
2022-08-19T17:56:39.847Z,4.80
2022-08-19T17:59:10.862Z,4.60
2022-08-19T18:01:51.982Z,5.00
2022-08-19T18:04:21.443Z,4.65
2022-08-19T18:06:53.331Z,5.57
2022-08-19T18:09:41.650Z,4.72
2022-08-19T18:12:12.529Z,3.28
2022-08-19T18:14:41.342Z,4.05
2022-08-19T18:17:17.433Z,5.22
2022-08-19T18:19:44.523Z,4.55
2022-08-19T18:22:31.686Z,4.57
2022-08-19T18:24:59.317Z,5.12
2022-08-19T18:27:28.227Z,4.20
2022-08-19T18:29:59.744Z,4.68
2022-08-19T18:32:34.072Z,4.37
2022-08-19T18:35:11.359Z,3.58
2022-08-19T18:37:39.453Z,4.00
2022-08-19T18:40:27.714Z,3.20
2022-08-19T18:43:13.924Z,5.65
2022-08-19T18:46:01.658Z,5.72
2022-08-19T18:48:47.942Z,4.25
2022-08-19T18:51:17.205Z,4.10
2022-08-19T18:53:47.132Z,4.10
2022-08-19T18:56:16.210Z,4.20
2022-08-19T18:58:43.611Z,4.65
2022-08-19T19:01:25.303Z,4.45
2022-08-19T19:03:54.553Z,4.25
2022-08-19T19:06:24.788Z,3.53
2022-08-19T19:08:54.392Z,5.68
2022-08-19T19:11:32.827Z,4.55
2022-08-19T19:14:04.288Z,5.32
2022-08-19T19:16:32.332Z,4.97
2022-08-19T19:19:00.838Z,4.80
2022-08-19T19:21:31.845Z,5.28
2022-08-19T19:24:01.124Z,6.50
2022-08-19T19:26:28.506Z,5.72
2022-08-19T19:28:55.615Z,3.53
2022-08-19T19:31:27.026Z,4.65
2022-08-19T19:33:55.662Z,5.03
2022-08-19T19:36:23.124Z,4.37
2022-08-19T19:38:49.941Z,4.45
2022-08-19T19:41:20.367Z,4.57
2022-08-19T19:43:56.644Z,4.18
2022-08-19T19:46:33.341Z,5.22
2022-08-19T19:49:02.297Z,7.70
2022-08-19T19:51:29.592Z,5.50
2022-08-19T19:54:00.139Z,5.05
2022-08-19T19:56:26.966Z,5.15
2022-08-19T19:58:54.145Z,5.40
2022-08-19T20:01:24.714Z,4.93
2022-08-19T20:03:54.039Z,3.67
2022-08-19T20:06:21.408Z,3.80
2022-08-19T20:09:06.678Z,5.47
2022-08-19T20:11:44.139Z,4.85
2022-08-19T20:14:15.871Z,4.75
2022-08-19T20:16:46.411Z,3.85
2022-08-19T20:19:17.149Z,4.80
2022-08-19T20:21:49.515Z,5.12
2022-08-19T20:24:22.818Z,5.87
2022-08-19T20:26:50.359Z,4.90
2022-08-19T20:29:38.908Z,4.47
2022-08-19T20:32:08.457Z,5.95
2022-08-19T20:34:35.189Z,4.93
2022-08-19T20:37:02.223Z,5.60
2022-08-19T20:39:31.939Z,5.47
2022-08-19T20:41:58.943Z,5.20
2022-08-19T20:44:25.800Z,4.95
2022-08-19T20:46:54.539Z,5.70
2022-08-19T20:49:21.679Z,5.22
2022-08-19T20:51:49.031Z,5.47
2022-08-19T20:54:15.857Z,5.32
2022-08-19T20:56:42.779Z,5.05
2022-08-19T20:59:10.714Z,6.15
2022-08-19T21:01:37.738Z,4.72
2022-08-19T21:04:04.824Z,5.45
2022-08-19T21:06:31.532Z,4.55
2022-08-19T21:09:00.084Z,4.43
2022-08-19T21:11:27.934Z,4.45
2022-08-19T21:13:54.746Z,5.90
2022-08-19T21:16:22.236Z,6.05
2022-08-19T21:18:49.196Z,6.45
2022-08-19T21:21:16.163Z,5.47
2022-08-19T21:23:44.077Z,6.10
2022-08-19T21:26:11.521Z,5.03
2022-08-19T21:28:38.252Z,6.07
2022-08-19T21:31:07.142Z,4.37
2022-08-19T21:33:33.885Z,4.82
2022-08-19T21:36:00.743Z,5.32
2022-08-19T21:38:27.754Z,4.90
2022-08-19T21:40:55.497Z,5.80
2022-08-19T21:43:22.699Z,5.25
2022-08-19T21:45:50.635Z,6.60
2022-08-19T21:48:17.652Z,4.57
2022-08-19T21:50:46.076Z,7.05
2022-08-19T21:53:19.276Z,7.37
2022-08-19T21:55:53.524Z,7.95
2022-08-19T21:58:29.943Z,7.55
2022-08-19T22:01:02.191Z,7.93
2022-08-19T22:03:29.211Z,9.48
2022-08-19T22:05:56.049Z,7.82
2022-08-19T22:08:22.750Z,7.07
2022-08-19T22:10:49.933Z,7.03
2022-08-19T22:13:18.434Z,8.15
2022-08-19T22:15:52.010Z,8.07
2022-08-19T22:18:19.133Z,6.60
2022-08-19T22:20:46.515Z,6.05
2022-08-19T22:23:13.893Z,6.68
2022-08-19T22:25:45.177Z,7.50
2022-08-19T22:28:13.903Z,8.20
2022-08-19T22:30:43.076Z,7.63
2022-08-19T22:33:13.623Z,8.85
2022-08-19T22:35:41.979Z,7.82
2022-08-19T22:38:10.485Z,8.10
2022-08-19T22:40:41.307Z,8.48
2022-08-19T22:43:14.501Z,8.38
2022-08-19T22:45:42.581Z,8.07
2022-08-19T22:48:11.486Z,8.88
2022-08-19T22:50:40.541Z,8.05
2022-08-19T22:53:09.023Z,9.48
2022-08-19T22:55:38.208Z,8.00
2022-08-19T22:58:05.816Z,7.70
2022-08-19T23:00:33.708Z,9.98
2022-08-19T23:03:01.742Z,8.70
2022-08-19T23:05:29.600Z,8.93
2022-08-19T23:07:58.687Z,8.48
2022-08-19T23:10:29.153Z,9.57
2022-08-19T23:12:59.955Z,9.68
2022-08-19T23:15:30.687Z,8.45
2022-08-19T23:17:59.810Z,9.65
2022-08-19T23:20:29.865Z,9.07
2022-08-19T23:22:57.737Z,9.25
2022-08-19T23:25:28.483Z,8.60
2022-08-19T23:28:14.396Z,9.25
2022-08-19T23:30:44.666Z,9.80
2022-08-19T23:33:24.280Z,8.70
2022-08-19T23:35:57.209Z,9.68
2022-08-19T23:38:24.990Z,11.77
2022-08-19T23:40:54.263Z,10.73
2022-08-19T23:43:25.079Z,10.30
2022-08-19T23:45:53.900Z,10.07
2022-08-19T23:48:24.964Z,10.95
2022-08-19T23:50:53.892Z,10.45
2022-08-19T23:53:21.262Z,11.05
2022-08-19T23:55:49.037Z,11.52
2022-08-19T23:58:17.535Z,11.18
